createdAt,value
2019-03-27T00:02:25.014Z,10.98
2019-03-27T00:04:56.199Z,11.57
2019-03-27T00:07:27.573Z,12.13
2019-03-27T00:09:58.637Z,12.33
2019-03-27T00:12:29.633Z,12.82
2019-03-27T00:15:12.079Z,12.55
2019-03-27T00:17:33.334Z,11.78
2019-03-27T00:20:08.623Z,12.43
2019-03-27T00:22:39.723Z,12.55
2019-03-27T00:25:11.212Z,12.30
2019-03-27T00:27:42.251Z,11.75
2019-03-27T00:30:13.439Z,12.05
2019-03-27T00:32:44.458Z,12.25
2019-03-27T00:35:15.625Z,11.88
2019-03-27T00:37:46.456Z,12.75
2019-03-27T00:40:17.740Z,12.70
2019-03-27T00:42:50.080Z,12.18
2019-03-27T00:45:27.006Z,12.82
2019-03-27T00:47:53.780Z,13.60
2019-03-27T00:50:25.030Z,11.70
2019-03-27T00:52:56.108Z,11.57
2019-03-27T00:55:27.245Z,12.80
2019-03-27T00:57:58.262Z,13.18
2019-03-27T01:00:42.135Z,11.90
2019-03-27T01:03:13.585Z,12.73
2019-03-27T01:05:44.612Z,12.70
2019-03-27T01:08:16.578Z,12.78
2019-03-27T01:10:49.994Z,12.60
2019-03-27T01:13:21.002Z,12.58
2019-03-27T01:15:52.036Z,11.40
2019-03-27T01:18:23.023Z,12.05
2019-03-27T01:20:54.860Z,11.60
2019-03-27T01:23:25.725Z,12.00
2019-03-27T01:25:56.866Z,11.20
2019-03-27T01:28:28.794Z,11.48
2019-03-27T01:30:59.854Z,11.08
2019-03-27T01:33:30.843Z,10.75
2019-03-27T01:36:01.994Z,11.20
2019-03-27T01:38:32.934Z,10.80
2019-03-27T01:41:03.972Z,11.73
2019-03-27T01:43:35.018Z,11.25
2019-03-27T01:46:06.094Z,12.03
2019-03-27T01:48:37.045Z,12.45
2019-03-27T01:51:08.198Z,11.90
2019-03-27T01:53:39.241Z,12.53
2019-03-27T01:56:10.264Z,12.20
2019-03-27T01:58:41.283Z,12.05
2019-03-27T02:01:12.341Z,13.35
2019-03-27T02:03:46.366Z,12.63
2019-03-27T02:06:17.486Z,12.90
2019-03-27T02:08:48.741Z,13.70
2019-03-27T02:11:19.846Z,14.20
2019-03-27T02:13:50.927Z,13.20
2019-03-27T02:16:22.030Z,12.28
2019-03-27T02:18:53.068Z,11.97
2019-03-27T02:21:25.174Z,11.88
2019-03-27T02:23:56.182Z,12.73
2019-03-27T02:26:27.257Z,12.55
2019-03-27T02:28:58.218Z,11.80
2019-03-27T02:31:29.239Z,12.68
2019-03-27T02:34:00.199Z,13.20
2019-03-27T02:36:31.334Z,12.70
2019-03-27T02:39:02.499Z,13.15
2019-03-27T02:41:34.742Z,13.78
2019-03-27T02:44:05.747Z,14.65
2019-03-27T02:46:36.808Z,13.30
2019-03-27T02:49:07.838Z,13.53
2019-03-27T02:51:39.258Z,13.78
2019-03-27T02:54:10.654Z,14.23
2019-03-27T02:56:41.699Z,13.75
2019-03-27T02:59:12.688Z,14.60
2019-03-27T03:01:47.786Z,14.18
2019-03-27T03:04:16.715Z,14.07
2019-03-27T03:06:47.954Z,13.53
2019-03-27T03:09:19.122Z,14.43
2019-03-27T03:11:50.185Z,15.58
2019-03-27T03:14:24.834Z,15.43
2019-03-27T03:16:55.838Z,13.88
2019-03-27T03:19:27.217Z,15.35
2019-03-27T03:21:58.358Z,15.30
2019-03-27T03:24:29.588Z,15.05
2019-03-27T03:27:00.691Z,15.18
2019-03-27T03:29:32.706Z,14.95
2019-03-27T03:32:03.876Z,14.95
2019-03-27T03:34:34.935Z,14.38
2019-03-27T03:37:06.086Z,14.95
2019-03-27T03:39:37.141Z,16.00
2019-03-27T03:42:08.094Z,15.60
2019-03-27T03:44:39.248Z,14.68
2019-03-27T03:47:10.745Z,14.43
2019-03-27T03:49:41.829Z,15.80
2019-03-27T03:52:12.941Z,16.60
2019-03-27T03:54:43.972Z,15.95
2019-03-27T03:57:15.908Z,16.32
2019-03-27T03:59:47.717Z,16.73
2019-03-27T04:02:19.468Z,16.05
2019-03-27T04:04:53.073Z,15.43
2019-03-27T04:07:24.200Z,14.87
2019-03-27T04:09:55.398Z,15.18
2019-03-27T04:12:26.374Z,16.30
2019-03-27T04:14:57.354Z,16.62
2019-03-27T04:17:28.434Z,16.23
2019-03-27T04:19:59.684Z,16.57
2019-03-27T04:22:30.892Z,15.68
2019-03-27T04:25:02.042Z,16.70
2019-03-27T04:27:35.039Z,16.20
2019-03-27T04:30:06.035Z,16.20
2019-03-27T04:32:37.157Z,16.55
2019-03-27T04:35:08.253Z,17.75
2019-03-27T04:37:39.502Z,16.20
2019-03-27T04:40:11.563Z,15.65
2019-03-27T04:42:43.848Z,16.73
2019-03-27T04:45:17.121Z,16.37
2019-03-27T04:47:48.311Z,17.10
2019-03-27T04:50:19.375Z,16.55
2019-03-27T04:52:50.621Z,15.65
2019-03-27T04:55:21.584Z,14.80
2019-03-27T04:57:52.679Z,15.85
2019-03-27T05:00:23.790Z,17.80
2019-03-27T05:02:55.649Z,16.15
2019-03-27T05:05:26.635Z,17.05
2019-03-27T05:07:57.898Z,17.40
2019-03-27T05:10:28.920Z,16.48
2019-03-27T05:13:00.025Z,16.12
2019-03-27T05:15:31.420Z,16.37
2019-03-27T05:18:02.498Z,15.45
2019-03-27T05:20:33.640Z,15.58
2019-03-27T05:23:04.859Z,16.12
2019-03-27T05:25:36.557Z,16.17
2019-03-27T05:28:07.575Z,17.07
2019-03-27T05:30:38.645Z,16.95
2019-03-27T05:33:10.936Z,16.50
2019-03-27T05:35:42.073Z,16.93
2019-03-27T05:38:13.389Z,16.97
2019-03-27T05:40:44.402Z,14.87
2019-03-27T05:43:15.566Z,15.30
2019-03-27T05:45:46.754Z,15.35
2019-03-27T05:48:17.806Z,14.55
2019-03-27T05:50:49.072Z,16.48
2019-03-27T05:53:20.491Z,15.28
2019-03-27T05:55:51.509Z,15.48
2019-03-27T05:58:22.651Z,15.55
2019-03-27T06:00:53.670Z,16.07
2019-03-27T06:03:24.648Z,15.90
2019-03-27T06:05:55.785Z,16.02
2019-03-27T06:08:27.046Z,15.50
2019-03-27T06:10:58.155Z,15.75
2019-03-27T06:13:29.362Z,16.73
2019-03-27T06:16:00.458Z,16.00
2019-03-27T06:18:31.735Z,16.87
2019-03-27T06:21:02.727Z,17.27
2019-03-27T06:23:34.046Z,17.02
2019-03-27T06:26:05.247Z,16.90
2019-03-27T06:28:36.436Z,16.65
2019-03-27T06:31:07.882Z,17.45
2019-03-27T06:33:39.136Z,19.07
2019-03-27T06:36:10.146Z,17.57
2019-03-27T06:38:41.479Z,18.80
2019-03-27T06:41:12.521Z,17.57
2019-03-27T06:43:43.723Z,17.70
2019-03-27T06:46:17.501Z,18.87
2019-03-27T06:48:48.703Z,19.55
2019-03-27T06:51:20.229Z,19.35
2019-03-27T06:53:53.650Z,18.27
2019-03-27T06:56:24.716Z,18.70
2019-03-27T06:58:55.845Z,19.37
2019-03-27T07:01:27.839Z,18.42
2019-03-27T07:04:10.005Z,18.48
2019-03-27T07:06:31.878Z,18.75
2019-03-27T07:09:03.010Z,17.92
2019-03-27T07:11:34.037Z,19.20
2019-03-27T07:14:13.293Z,19.73
2019-03-27T07:16:45.247Z,20.05
2019-03-27T07:19:17.106Z,19.12
2019-03-27T07:21:48.456Z,20.00
2019-03-27T07:24:20.349Z,20.08
2019-03-27T07:26:51.531Z,20.48
2019-03-27T07:29:22.870Z,19.55
2019-03-27T07:31:53.993Z,19.12
2019-03-27T07:34:25.967Z,19.05
2019-03-27T07:36:56.981Z,20.35
2019-03-27T07:39:28.076Z,19.07
2019-03-27T07:41:59.052Z,19.57
2019-03-27T07:44:30.235Z,19.40
2019-03-27T07:47:01.415Z,17.37
2019-03-27T07:49:33.616Z,17.05
2019-03-27T07:52:04.572Z,16.70
2019-03-27T07:54:37.526Z,16.57
2019-03-27T07:57:08.591Z,17.07
2019-03-27T07:59:39.654Z,16.20
2019-03-27T08:02:10.813Z,16.37
2019-03-27T08:04:41.835Z,17.85
2019-03-27T08:07:25.916Z,16.90
2019-03-27T08:09:45.575Z,17.67
2019-03-27T08:12:16.808Z,15.98
2019-03-27T08:14:53.664Z,16.00
2019-03-27T08:17:24.671Z,16.48
2019-03-27T08:19:55.754Z,15.18
2019-03-27T08:22:27.003Z,15.65
2019-03-27T08:24:58.118Z,15.32
2019-03-27T08:27:33.135Z,15.60
2019-03-27T08:30:06.853Z,15.08
2019-03-27T08:32:37.898Z,12.65
2019-03-27T08:35:10.303Z,9.28
2019-03-27T08:37:41.379Z,8.30
2019-03-27T08:40:13.731Z,10.50
2019-03-27T08:42:44.652Z,9.35
2019-03-27T08:45:15.859Z,11.38
2019-03-27T08:47:46.895Z,11.15
2019-03-27T08:50:18.635Z,11.83
2019-03-27T08:52:49.724Z,11.97
2019-03-27T08:55:24.002Z,12.65
2019-03-27T08:57:55.205Z,10.48
2019-03-27T09:00:49.389Z,11.20
2019-03-27T09:03:20.512Z,10.98
2019-03-27T09:05:52.763Z,11.83
2019-03-27T09:08:23.789Z,10.93
2019-03-27T09:10:55.080Z,10.65
2019-03-27T09:13:26.213Z,11.10
2019-03-27T09:15:57.489Z,10.05
2019-03-27T09:18:28.522Z,10.10
2019-03-27T09:20:59.966Z,9.23
2019-03-27T09:23:31.011Z,9.73
2019-03-27T09:26:02.411Z,9.53
2019-03-27T09:28:33.516Z,8.98
2019-03-27T09:31:04.689Z,7.33
2019-03-27T09:33:35.584Z,7.62
2019-03-27T09:36:07.085Z,6.75
2019-03-27T09:38:38.360Z,6.78
2019-03-27T09:41:09.410Z,5.80
2019-03-27T09:43:40.624Z,6.80
2019-03-27T09:46:11.802Z,6.90
2019-03-27T09:48:43.708Z,6.60
2019-03-27T09:51:14.842Z,6.42
2019-03-27T09:53:45.728Z,6.78
2019-03-27T09:56:19.704Z,6.80
2019-03-27T09:58:50.859Z,6.45
2019-03-27T10:01:21.856Z,6.62
2019-03-27T10:03:52.745Z,6.53
2019-03-27T10:06:23.894Z,8.15
2019-03-27T10:08:55.024Z,7.28
2019-03-27T10:11:26.164Z,8.08
2019-03-27T10:13:57.394Z,8.25
2019-03-27T10:16:28.596Z,8.83
2019-03-27T10:18:59.792Z,8.20
2019-03-27T10:21:31.185Z,8.60
2019-03-27T10:24:02.250Z,7.50
2019-03-27T10:26:33.416Z,7.28
2019-03-27T10:29:04.956Z,6.83
2019-03-27T10:31:35.884Z,6.95
2019-03-27T10:34:06.920Z,5.97
2019-03-27T10:36:38.074Z,5.28
2019-03-27T10:39:09.427Z,4.40
2019-03-27T10:41:40.578Z,3.85
2019-03-27T10:44:11.619Z,3.90
2019-03-27T10:46:42.643Z,3.77
2019-03-27T10:49:13.679Z,3.75
2019-03-27T10:51:45.257Z,3.95
2019-03-27T10:54:16.336Z,4.30
2019-03-27T10:56:47.647Z,4.83
2019-03-27T10:59:18.685Z,5.10
2019-03-27T11:01:49.746Z,5.10
2019-03-27T11:04:20.816Z,5.30
2019-03-27T11:06:51.951Z,5.47
2019-03-27T11:09:23.057Z,5.50
2019-03-27T11:11:54.518Z,6.12
2019-03-27T11:14:37.242Z,5.00
2019-03-27T11:16:58.440Z,5.28
2019-03-27T11:19:29.645Z,4.45
2019-03-27T11:22:01.280Z,5.90
2019-03-27T11:24:33.082Z,5.30
2019-03-27T11:27:04.369Z,5.08
2019-03-27T11:29:35.339Z,5.85
2019-03-27T11:32:06.504Z,4.60
2019-03-27T11:34:37.453Z,5.55
2019-03-27T11:37:08.600Z,5.53
2019-03-27T11:39:40.012Z,4.92
2019-03-27T11:42:11.212Z,4.17
2019-03-27T11:44:42.079Z,5.20
2019-03-27T11:47:13.627Z,4.33
2019-03-27T11:49:44.746Z,4.50
2019-03-27T11:52:15.975Z,4.20
2019-03-27T11:54:47.267Z,4.58
2019-03-27T11:57:18.477Z,3.05
2019-03-27T11:59:54.319Z,4.00
2019-03-27T12:02:22.903Z,3.87
2019-03-27T12:04:54.092Z,4.50
2019-03-27T12:07:25.311Z,4.60
2019-03-27T12:09:56.351Z,4.92
2019-03-27T12:12:27.522Z,4.50
2019-03-27T12:14:58.667Z,4.20
2019-03-27T12:17:29.617Z,4.20
2019-03-27T12:20:00.662Z,3.40
2019-03-27T12:22:33.413Z,3.70
2019-03-27T12:25:04.413Z,3.50
2019-03-27T12:27:35.628Z,3.85
2019-03-27T12:30:07.670Z,3.45
2019-03-27T12:32:38.682Z,3.80
2019-03-27T12:35:09.818Z,3.92
2019-03-27T12:37:41.141Z,4.22
2019-03-27T12:40:12.246Z,3.98
2019-03-27T12:42:43.251Z,4.45
2019-03-27T12:45:14.690Z,4.03
2019-03-27T12:47:45.802Z,3.87
2019-03-27T12:50:17.018Z,4.20
2019-03-27T12:52:48.332Z,4.10
2019-03-27T12:55:19.470Z,4.30
2019-03-27T12:57:50.594Z,3.87
2019-03-27T13:00:21.975Z,3.80
2019-03-27T13:02:53.086Z,3.52
2019-03-27T13:05:24.162Z,4.00
2019-03-27T13:07:55.486Z,3.95
2019-03-27T13:10:26.463Z,3.80
2019-03-27T13:12:57.921Z,3.50
2019-03-27T13:15:28.988Z,3.60
2019-03-27T13:18:00.074Z,3.10
2019-03-27T13:20:31.155Z,4.08
2019-03-27T13:23:05.096Z,4.60
2019-03-27T13:25:36.250Z,3.70
2019-03-27T13:28:07.461Z,3.42
2019-03-27T13:30:38.996Z,3.33
2019-03-27T13:33:11.241Z,4.15
2019-03-27T13:35:42.539Z,3.45
2019-03-27T13:38:14.143Z,3.72
2019-03-27T13:40:45.184Z,3.50
2019-03-27T13:43:16.205Z,4.08
2019-03-27T13:45:47.170Z,3.20
2019-03-27T13:48:19.318Z,3.50
2019-03-27T13:50:50.255Z,3.50
2019-03-27T13:53:21.463Z,3.72
2019-03-27T13:55:52.469Z,3.75
2019-03-27T13:58:23.679Z,3.67
2019-03-27T14:00:54.584Z,4.10
2019-03-27T14:03:25.631Z,3.35
2019-03-27T14:05:56.623Z,4.00
2019-03-27T14:08:27.733Z,3.45
2019-03-27T14:10:58.894Z,3.87
2019-03-27T14:13:29.886Z,3.40
2019-03-27T14:16:01.330Z,3.98
2019-03-27T14:18:32.367Z,3.83
2019-03-27T14:21:03.859Z,3.87
2019-03-27T14:23:37.643Z,4.35
2019-03-27T14:26:08.634Z,3.65
2019-03-27T14:28:39.611Z,4.30
2019-03-27T14:31:10.731Z,3.95
2019-03-27T14:33:41.804Z,3.62
2019-03-27T14:36:12.808Z,3.62
2019-03-27T14:38:43.907Z,3.77
2019-03-27T14:41:14.712Z,4.12
2019-03-27T14:43:47.313Z,3.95
2019-03-27T14:46:19.203Z,3.92
2019-03-27T14:48:50.223Z,3.60
2019-03-27T14:51:21.252Z,4.08
2019-03-27T14:53:52.663Z,4.65
2019-03-27T14:56:23.870Z,4.80
2019-03-27T14:58:54.872Z,4.37
2019-03-27T15:01:25.842Z,4.25
2019-03-27T15:03:56.974Z,4.58
2019-03-27T15:06:28.325Z,4.65
2019-03-27T15:08:59.946Z,3.90
2019-03-27T15:11:31.059Z,4.15
2019-03-27T15:14:02.328Z,3.80
2019-03-27T15:16:33.380Z,4.62
2019-03-27T15:19:04.557Z,3.62
2019-03-27T15:21:36.072Z,3.83
2019-03-27T15:24:07.840Z,4.05
2019-03-27T15:26:38.782Z,3.77
2019-03-27T15:29:09.968Z,4.03
2019-03-27T15:31:45.416Z,6.12
2019-03-27T15:34:16.684Z,6.20
2019-03-27T15:36:47.790Z,4.58
2019-03-27T15:39:20.463Z,4.03
2019-03-27T15:41:51.581Z,3.80
2019-03-27T15:44:23.814Z,4.08
2019-03-27T15:46:54.863Z,4.05
2019-03-27T15:49:25.900Z,3.95
2019-03-27T15:51:56.942Z,3.80
2019-03-27T15:54:31.411Z,4.55
2019-03-27T15:57:05.637Z,4.55
2019-03-27T15:59:36.714Z,4.58
2019-03-27T16:02:12.014Z,4.40
2019-03-27T16:04:43.092Z,4.58
2019-03-27T16:07:14.211Z,4.83
2019-03-27T16:09:47.503Z,4.85
2019-03-27T16:12:19.598Z,5.35
2019-03-27T16:14:50.656Z,5.50
2019-03-27T16:17:22.497Z,5.40
2019-03-27T16:19:54.553Z,4.72
2019-03-27T16:22:25.594Z,5.40
2019-03-27T16:24:56.721Z,4.50
2019-03-27T16:27:27.606Z,4.75
2019-03-27T16:29:58.906Z,4.08
2019-03-27T16:32:29.909Z,4.15
2019-03-27T16:35:01.119Z,3.98
2019-03-27T16:37:32.072Z,4.20
2019-03-27T16:40:06.084Z,4.50
2019-03-27T16:42:37.113Z,4.62
2019-03-27T16:45:09.225Z,4.45
2019-03-27T16:47:40.413Z,4.30
2019-03-27T16:50:12.310Z,4.72
2019-03-27T16:52:43.669Z,5.17
2019-03-27T16:55:15.029Z,4.85
2019-03-27T16:57:46.037Z,4.72
2019-03-27T17:00:17.166Z,4.97
2019-03-27T17:02:48.130Z,4.20
2019-03-27T17:05:19.259Z,5.60
2019-03-27T17:07:50.256Z,4.75
2019-03-27T17:10:21.881Z,4.80
2019-03-27T17:12:53.005Z,5.03
2019-03-27T17:15:24.160Z,4.30
2019-03-27T17:17:55.490Z,4.55
2019-03-27T17:20:26.661Z,4.42
2019-03-27T17:22:57.869Z,4.50
2019-03-27T17:25:28.962Z,4.33
2019-03-27T17:28:00.000Z,4.20
2019-03-27T17:30:32.078Z,4.50
2019-03-27T17:33:03.321Z,4.75
2019-03-27T17:35:34.442Z,4.12
2019-03-27T17:38:05.425Z,5.30
2019-03-27T17:40:36.685Z,4.72
2019-03-27T17:43:07.674Z,4.20
2019-03-27T17:45:39.029Z,4.50
2019-03-27T17:48:10.044Z,5.10
2019-03-27T17:50:41.414Z,4.55
2019-03-27T17:53:12.383Z,4.70
2019-03-27T17:55:43.471Z,4.70
2019-03-27T17:58:14.557Z,5.35
2019-03-27T18:00:52.863Z,4.47
2019-03-27T18:03:23.899Z,4.42
2019-03-27T18:05:55.092Z,4.85
2019-03-27T18:08:26.051Z,4.45
2019-03-27T18:10:57.398Z,5.08
2019-03-27T18:13:29.589Z,4.90
2019-03-27T18:16:00.697Z,5.87
2019-03-27T18:18:31.850Z,5.17
2019-03-27T18:21:03.280Z,5.30
2019-03-27T18:23:45.256Z,6.10
2019-03-27T18:26:07.303Z,5.83
2019-03-27T18:28:38.481Z,6.40
2019-03-27T18:31:09.527Z,6.15
2019-03-27T18:33:40.653Z,6.15
2019-03-27T18:36:11.604Z,6.45
2019-03-27T18:38:45.693Z,6.42
2019-03-27T18:41:15.570Z,6.58
2019-03-27T18:43:46.685Z,6.55
2019-03-27T18:46:18.041Z,6.15
2019-03-27T18:48:49.145Z,5.65
2019-03-27T18:51:20.723Z,9.48
2019-03-27T18:53:59.449Z,8.33
2019-03-27T18:56:24.851Z,8.55
2019-03-27T18:58:56.000Z,7.87
2019-03-27T19:01:27.119Z,7.83
2019-03-27T19:03:58.163Z,7.05
2019-03-27T19:06:29.240Z,5.92
2019-03-27T19:09:00.337Z,5.90
2019-03-27T19:11:31.567Z,6.50
2019-03-27T19:14:02.669Z,6.97
2019-03-27T19:16:33.898Z,6.50
2019-03-27T19:19:06.559Z,6.37
2019-03-27T19:21:37.889Z,6.33
2019-03-27T19:24:16.200Z,6.60
2019-03-27T19:26:43.305Z,5.17
2019-03-27T19:29:14.743Z,5.28
2019-03-27T19:31:46.144Z,6.78
2019-03-27T19:34:17.277Z,7.20
2019-03-27T19:36:48.305Z,7.17
2019-03-27T19:39:20.281Z,6.67
2019-03-27T19:41:51.799Z,6.30
2019-03-27T19:44:22.921Z,6.12
2019-03-27T19:46:54.025Z,6.47
2019-03-27T19:49:25.133Z,6.05
2019-03-27T19:51:56.281Z,5.67
2019-03-27T19:54:29.197Z,5.12
2019-03-27T19:57:00.551Z,5.05
2019-03-27T19:59:31.848Z,4.78
2019-03-27T20:02:03.066Z,4.22
2019-03-27T20:04:34.171Z,4.87
2019-03-27T20:07:05.285Z,4.42
2019-03-27T20:09:36.342Z,4.30
2019-03-27T20:12:07.486Z,4.70
2019-03-27T20:14:38.618Z,4.97
2019-03-27T20:17:09.672Z,5.00
2019-03-27T20:19:41.757Z,5.25
2019-03-27T20:22:13.110Z,5.53
2019-03-27T20:24:44.580Z,5.15
2019-03-27T20:27:15.696Z,6.60
2019-03-27T20:29:46.803Z,5.25
2019-03-27T20:32:17.933Z,5.70
2019-03-27T20:34:49.046Z,4.60
2019-03-27T20:37:20.286Z,4.20
2019-03-27T20:39:51.333Z,3.75
2019-03-27T20:42:22.404Z,4.00
2019-03-27T20:44:53.772Z,4.47
2019-03-27T20:47:25.834Z,4.40
2019-03-27T20:49:56.863Z,4.33
2019-03-27T20:52:27.972Z,4.72
2019-03-27T20:54:59.034Z,4.83
2019-03-27T20:57:30.569Z,4.30
2019-03-27T21:00:01.699Z,5.50
2019-03-27T21:02:34.640Z,4.72
2019-03-27T21:05:05.832Z,5.47
2019-03-27T21:07:37.407Z,5.08
2019-03-27T21:10:09.194Z,5.35
2019-03-27T21:12:40.548Z,5.30
2019-03-27T21:15:11.622Z,5.15
2019-03-27T21:17:43.049Z,5.35
2019-03-27T21:20:14.461Z,4.83
2019-03-27T21:22:50.126Z,5.53
2019-03-27T21:25:21.327Z,5.40
2019-03-27T21:27:52.873Z,5.90
2019-03-27T21:30:24.010Z,5.00
2019-03-27T21:32:55.771Z,5.87
2019-03-27T21:35:26.856Z,5.60
2019-03-27T21:37:58.160Z,5.30
2019-03-27T21:40:29.180Z,5.78
2019-03-27T21:43:00.214Z,5.05
2019-03-27T21:45:32.461Z,5.35
2019-03-27T21:48:03.768Z,5.53
2019-03-27T21:50:35.996Z,5.87
2019-03-27T21:53:07.103Z,5.58
2019-03-27T21:55:42.912Z,5.45
2019-03-27T21:58:11.822Z,6.60
2019-03-27T22:00:43.059Z,9.83
2019-03-27T22:03:14.044Z,8.15
2019-03-27T22:05:45.374Z,10.50
2019-03-27T22:08:16.371Z,7.08
2019-03-27T22:10:47.335Z,7.25
2019-03-27T22:13:18.428Z,7.28
2019-03-27T22:15:50.275Z,6.95
2019-03-27T22:18:21.373Z,6.97
2019-03-27T22:20:52.630Z,5.95
2019-03-27T22:23:23.802Z,6.20
2019-03-27T22:25:55.871Z,7.08
2019-03-27T22:28:26.830Z,6.08
2019-03-27T22:30:58.189Z,7.20
2019-03-27T22:33:29.246Z,6.15
2019-03-27T22:36:00.384Z,6.80
2019-03-27T22:38:32.453Z,7.28
2019-03-27T22:41:03.762Z,7.00
2019-03-27T22:43:34.803Z,7.15
2019-03-27T22:46:05.892Z,7.10
2019-03-27T22:48:36.831Z,7.28
2019-03-27T22:51:08.133Z,7.35
2019-03-27T22:53:39.276Z,6.80
2019-03-27T22:56:10.534Z,7.28
2019-03-27T22:58:41.606Z,7.22
2019-03-27T23:01:12.744Z,6.87
2019-03-27T23:03:45.390Z,7.37
2019-03-27T23:06:17.953Z,7.65
2019-03-27T23:08:49.123Z,7.03
2019-03-27T23:11:20.196Z,7.35
2019-03-27T23:13:52.790Z,7.53
2019-03-27T23:16:23.803Z,7.60
2019-03-27T23:18:54.734Z,6.50
2019-03-27T23:21:28.435Z,8.10
2019-03-27T23:24:01.474Z,8.48
2019-03-27T23:26:32.593Z,7.80
2019-03-27T23:29:04.342Z,7.12
2019-03-27T23:31:35.603Z,7.15
2019-03-27T23:34:06.607Z,6.97
2019-03-27T23:36:37.677Z,7.80
2019-03-27T23:39:09.337Z,8.23
2019-03-27T23:41:40.494Z,8.70
2019-03-27T23:44:14.117Z,8.20
2019-03-27T23:46:46.451Z,7.87
2019-03-27T23:49:17.428Z,9.03
2019-03-27T23:51:49.868Z,6.70
2019-03-27T23:54:20.978Z,7.55
2019-03-27T23:56:52.418Z,7.87
2019-03-27T23:59:23.491Z,8.30
